Time;durP1;ratioP1;P1;durP2;ratioP2;P2;SDS_P1;SDS_P2;PMS_P1;PMS_P2;Temp;Humidity;BMP_temperature;BMP_pressure;BME280_temperature;BME280_humidity;BME280_pressure;Samples;Min_cycle;Max_cycle;Signal;HPM_P1;HPM_P2
2021/12/11 00:00:57;;;;;;;32.67;14.70;;;;;;;;;;6182599;23;20160;-90
2021/12/11 00:04:03;;;;;;;46.70;17.47;;;;;;;;;;6181851;23;20191;-88
2021/12/11 00:07:09;;;;;;;44.90;16.60;;;;;;;;;;6181333;23;20167;-89
2021/12/11 00:10:21;;;;;;;35.50;15.33;;;;;;;;;;6182473;23;20168;-89
2021/12/11 00:13:30;;;;;;;33.17;15.20;;;;;;;;;;6182426;23;20180;-89
2021/12/11 00:16:35;;;;;;;36.37;17.33;;;;;;;;;;6182742;23;20215;-88
2021/12/11 00:19:41;;;;;;;38.27;16.10;;;;;;;;;;6183106;23;20244;-88
2021/12/11 00:22:47;;;;;;;31.83;14.13;;;;;;;;;;6182304;23;20291;-89
2021/12/11 00:25:52;;;;;;;35.53;15.57;;;;;;;;;;6183112;23;20164;-90
2021/12/11 00:28:59;;;;;;;35.57;15.53;;;;;;;;;;6183057;23;20220;-89
2021/12/11 00:32:06;;;;;;;34.63;15.60;;;;;;;;;;6182287;23;20172;-91
2021/12/11 00:35:14;;;;;;;31.83;15.40;;;;;;;;;;6181929;23;20716;-89
2021/12/11 00:38:21;;;;;;;35.23;15.57;;;;;;;;;;6182393;23;20171;-88
2021/12/11 00:41:27;;;;;;;38.97;16.33;;;;;;;;;;6182151;23;20176;-89
2021/12/11 00:44:36;;;;;;;40.63;17.33;;;;;;;;;;6182061;23;20306;-90
2021/12/11 00:47:44;;;;;;;33.93;15.97;;;;;;;;;;6182240;23;20163;-89
2021/12/11 00:50:52;;;;;;;29.17;15.07;;;;;;;;;;6182431;23;20167;-89
2021/12/11 00:53:58;;;;;;;32.43;16.13;;;;;;;;;;6183344;23;20171;-91
2021/12/11 00:57:03;;;;;;;35.00;15.77;;;;;;;;;;6181239;23;20164;-89
2021/12/11 01:00:13;;;;;;;33.10;15.97;;;;;;;;;;6183188;23;20219;-88
2021/12/11 01:03:20;;;;;;;32.70;16.17;;;;;;;;;;6182019;23;20183;-88
2021/12/11 01:06:27;;;;;;;36.43;17.40;;;;;;;;;;6181866;23;20171;-87
2021/12/11 01:19:04;;;;;;;31.77;15.73;;;;;;;;;;6172686;23;20198;-90
2021/12/11 01:22:21;;;;;;;33.97;16.60;;;;;;;;;;6154659;23;20250;-91
2021/12/11 01:25:27;;;;;;;36.87;16.90;;;;;;;;;;6155124;23;20252;-89
2021/12/11 01:28:33;;;;;;;42.07;16.07;;;;;;;;;;6154523;23;20247;-87
2021/12/11 01:31:39;;;;;;;34.43;15.63;;;;;;;;;;6153732;23;20790;-89
2021/12/11 01:34:46;;;;;;;34.27;15.13;;;;;;;;;;6154931;23;20168;-89
2021/12/11 01:37:53;;;;;;;37.23;16.87;;;;;;;;;;6155255;23;20180;-91
2021/12/11 01:41:00;;;;;;;33.63;15.37;;;;;;;;;;6154911;23;20575;-90
2021/12/11 01:44:07;;;;;;;35.40;15.33;;;;;;;;;;6153871;23;20911;-89
2021/12/11 01:47:13;;;;;;;30.97;15.07;;;;;;;;;;6154314;23;20237;-87
2021/12/11 01:50:22;;;;;;;30.17;14.60;;;;;;;;;;6156367;23;20160;-89
2021/12/11 01:53:28;;;;;;;35.27;15.07;;;;;;;;;;6154540;23;20157;-89
2021/12/11 01:56:36;;;;;;;34.30;15.83;;;;;;;;;;6156866;23;20228;-90
2021/12/11 01:59:43;;;;;;;33.60;15.53;;;;;;;;;;6156277;23;20237;-87
2021/12/11 02:02:51;;;;;;;31.07;15.27;;;;;;;;;;6154692;23;20169;-87
2021/12/11 02:05:57;;;;;;;28.73;14.83;;;;;;;;;;6155789;23;20180;-89
2021/12/11 02:09:10;;;;;;;34.63;16.30;;;;;;;;;;6159100;23;20242;-88
2021/12/11 02:12:16;;;;;;;31.00;16.20;;;;;;;;;;6155521;23;20168;-87
2021/12/11 02:18:19;;;;;;;37.17;15.47;;;;;;;;;;6180989;22;20194;-88
2021/12/11 02:21:27;;;;;;;33.83;16.17;;;;;;;;;;6216007;23;20166;-91
2021/12/11 02:27:10;;;;;;;38.90;17.13;;;;;;;;;;6176322;22;20411;-89
2021/12/11 02:30:21;;;;;;;39.73;17.53;;;;;;;;;;6215025;23;20167;-89
2021/12/11 02:33:28;;;;;;;34.87;15.77;;;;;;;;;;6213796;23;20176;-90
2021/12/11 02:36:35;;;;;;;35.77;15.57;;;;;;;;;;6214325;23;20150;-88
2021/12/11 02:39:43;;;;;;;34.57;14.47;;;;;;;;;;6213962;23;20178;-89
2021/12/11 02:42:52;;;;;;;42.00;16.77;;;;;;;;;;6212997;23;20151;-89
2021/12/11 02:46:01;;;;;;;37.50;16.67;;;;;;;;;;6213519;23;20265;-91
2021/12/11 02:49:09;;;;;;;40.60;16.63;;;;;;;;;;6214150;23;20611;-87
2021/12/11 02:52:17;;;;;;;41.90;14.93;;;;;;;;;;6214005;23;20167;-90
2021/12/11 02:55:24;;;;;;;32.83;15.23;;;;;;;;;;6212025;23;20167;-90
2021/12/11 02:58:34;;;;;;;34.07;15.80;;;;;;;;;;6214189;23;20147;-90
2021/12/11 03:01:40;;;;;;;37.73;15.37;;;;;;;;;;6213414;23;20171;-91
2021/12/11 03:04:50;;;;;;;36.20;16.20;;;;;;;;;;6212931;23;20614;-90
2021/12/11 03:08:00;;;;;;;36.80;15.60;;;;;;;;;;6213119;23;20175;-87
2021/12/11 03:11:07;;;;;;;33.20;14.90;;;;;;;;;;6213133;23;20171;-90
2021/12/11 03:14:16;;;;;;;34.90;15.50;;;;;;;;;;6213849;23;20203;-91
2021/12/11 03:17:22;;;;;;;28.73;14.17;;;;;;;;;;6215069;23;20243;-89
2021/12/11 03:20:27;;;;;;;32.63;15.20;;;;;;;;;;6213057;23;20232;-89
2021/12/11 03:23:33;;;;;;;29.97;13.97;;;;;;;;;;6212113;23;20167;-91
2021/12/11 03:26:39;;;;;;;31.27;14.37;;;;;;;;;;6212384;23;20159;-89
2021/12/11 03:29:45;;;;;;;32.90;14.63;;;;;;;;;;6214658;23;20240;-89
2021/12/11 03:32:54;;;;;;;29.63;14.23;;;;;;;;;;6216530;23;20195;-89
2021/12/11 03:35:59;;;;;;;30.30;14.10;;;;;;;;;;6213756;23;20255;-89
2021/12/11 03:39:09;;;;;;;36.60;14.70;;;;;;;;;;6211051;23;20171;-88
2021/12/11 03:42:16;;;;;;;32.97;14.80;;;;;;;;;;6212123;23;20211;-89
2021/12/11 03:45:25;;;;;;;29.97;14.57;;;;;;;;;;6211142;23;20230;-89
2021/12/11 03:48:31;;;;;;;27.07;13.43;;;;;;;;;;6212456;23;20155;-89
2021/12/11 03:51:41;;;;;;;30.60;14.47;;;;;;;;;;6214523;23;20167;-90
2021/12/11 03:54:47;;;;;;;31.63;13.43;;;;;;;;;;6211833;23;20163;-88
2021/12/11 03:57:57;;;;;;;27.07;13.67;;;;;;;;;;6211971;23;20223;-89
2021/12/11 04:01:07;;;;;;;27.77;13.57;;;;;;;;;;6210268;23;20178;-89
2021/12/11 04:04:13;;;;;;;27.73;13.30;;;;;;;;;;6211784;23;20199;-88
2021/12/11 04:07:20;;;;;;;35.30;14.57;;;;;;;;;;6211071;23;20174;-88
2021/12/11 04:10:27;;;;;;;28.93;14.13;;;;;;;;;;6210765;23;20178;-88
2021/12/11 04:13:32;;;;;;;31.67;14.53;;;;;;;;;;6212826;23;20254;-89
2021/12/11 04:16:39;;;;;;;30.07;13.87;;;;;;;;;;6211165;23;20504;-89
2021/12/11 04:19:44;;;;;;;30.17;14.63;;;;;;;;;;6211093;23;20185;-90
2021/12/11 04:22:49;;;;;;;38.70;16.10;;;;;;;;;;6211729;23;20180;-89
2021/12/11 04:25:56;;;;;;;31.60;14.80;;;;;;;;;;6211148;23;20239;-88
2021/12/11 04:29:01;;;;;;;34.47;15.67;;;;;;;;;;6211242;23;20689;-90
2021/12/11 04:32:08;;;;;;;32.00;14.60;;;;;;;;;;6212649;23;20171;-89
2021/12/11 04:35:16;;;;;;;34.73;16.03;;;;;;;;;;6211607;23;20214;-90
2021/12/11 04:38:21;;;;;;;35.23;15.33;;;;;;;;;;6211567;23;20178;-89
2021/12/11 04:41:30;;;;;;;34.43;15.17;;;;;;;;;;6212126;23;20163;-91
2021/12/11 04:44:39;;;;;;;31.50;14.90;;;;;;;;;;6211742;23;20230;-89
2021/12/11 04:47:51;;;;;;;31.23;14.10;;;;;;;;;;6213228;23;20175;-91
2021/12/11 04:51:00;;;;;;;33.23;15.00;;;;;;;;;;6212367;23;20630;-89
2021/12/11 04:54:21;;;;;;;32.83;14.23;;;;;;;;;;6213536;23;20300;-89
2021/12/11 04:57:53;;;;;;;30.90;14.83;;;;;;;;;;6212934;23;20175;-88
2021/12/11 05:01:15;;;;;;;35.77;15.63;;;;;;;;;;6213703;23;20209;-89
2021/12/11 05:08:02;;;;;;;35.37;14.20;;;;;;;;;;6211611;23;20167;-88
2021/12/11 05:11:11;;;;;;;31.33;14.17;;;;;;;;;;6212701;23;20160;-89
2021/12/11 05:14:17;;;;;;;33.57;15.00;;;;;;;;;;6213264;23;20176;-89
2021/12/11 05:17:23;;;;;;;30.37;15.17;;;;;;;;;;6211616;23;20238;-88
2021/12/11 05:20:32;;;;;;;31.07;14.73;;;;;;;;;;6213503;23;20155;-90
2021/12/11 05:23:37;;;;;;;32.50;14.13;;;;;;;;;;6213259;23;20214;-89
2021/12/11 05:26:42;;;;;;;41.27;18.50;;;;;;;;;;6213079;23;20175;-88
2021/12/11 05:29:47;;;;;;;33.30;15.90;;;;;;;;;;6214164;23;20171;-90
2021/12/11 05:32:53;;;;;;;30.47;14.57;;;;;;;;;;6212760;23;20163;-89
2021/12/11 05:35:59;;;;;;;30.77;14.47;;;;;;;;;;6228489;23;20218;-87
2021/12/11 05:39:06;;;;;;;27.57;14.03;;;;;;;;;;6212851;23;20171;-89
2021/12/11 05:42:14;;;;;;;32.03;14.33;;;;;;;;;;6216595;23;20227;-88
2021/12/11 05:45:19;;;;;;;31.57;15.03;;;;;;;;;;6214778;23;20183;-89
2021/12/11 05:48:24;;;;;;;29.53;14.53;;;;;;;;;;6213557;23;20166;-90
2021/12/11 05:51:37;;;;;;;32.03;14.17;;;;;;;;;;6214327;23;20222;-91
2021/12/11 05:54:46;;;;;;;31.23;13.73;;;;;;;;;;6216018;23;20171;-92
2021/12/11 05:57:54;;;;;;;35.13;14.40;;;;;;;;;;6216762;23;20221;-88
2021/12/11 06:00:59;;;;;;;30.50;13.90;;;;;;;;;;6218131;23;20179;-87
2021/12/11 06:04:06;;;;;;;29.20;13.07;;;;;;;;;;6216324;23;20170;-88
2021/12/11 06:07:13;;;;;;;29.87;13.20;;;;;;;;;;6215126;23;20626;-88
2021/12/11 06:10:19;;;;;;;33.00;13.67;;;;;;;;;;6215229;23;20207;-91
2021/12/11 06:13:25;;;;;;;29.50;14.03;;;;;;;;;;6217264;23;20151;-90
2021/12/11 06:16:31;;;;;;;28.90;12.70;;;;;;;;;;6215344;23;20211;-87
2021/12/11 06:19:36;;;;;;;25.27;11.87;;;;;;;;;;6214547;23;20162;-92
2021/12/11 06:22:42;;;;;;;29.17;12.87;;;;;;;;;;6216064;23;20229;-91
2021/12/11 06:25:47;;;;;;;31.07;13.80;;;;;;;;;;6215202;23;20267;-88
2021/12/11 06:28:52;;;;;;;33.97;14.03;;;;;;;;;;6216157;23;20187;-90
2021/12/11 06:31:57;;;;;;;31.50;13.93;;;;;;;;;;6217861;23;20166;-90
2021/12/11 06:35:05;;;;;;;31.37;14.30;;;;;;;;;;6218671;23;20164;-90
2021/12/11 06:38:13;;;;;;;30.70;12.77;;;;;;;;;;6218042;23;20266;-88
2021/12/11 06:41:20;;;;;;;25.87;12.30;;;;;;;;;;6217848;23;20167;-88
2021/12/11 06:44:28;;;;;;;28.57;13.60;;;;;;;;;;6218878;23;20163;-91
2021/12/11 06:47:33;;;;;;;42.67;19.63;;;;;;;;;;6218253;23;20172;-88
2021/12/11 06:50:39;;;;;;;38.47;17.33;;;;;;;;;;6215822;23;20183;-89
2021/12/11 06:53:47;;;;;;;34.07;16.63;;;;;;;;;;6199149;23;20167;-90
2021/12/11 06:56:53;;;;;;;32.60;15.00;;;;;;;;;;6214967;23;20173;-90
2021/12/11 06:59:58;;;;;;;35.00;16.20;;;;;;;;;;6215573;23;20152;-89
2021/12/11 07:03:03;;;;;;;33.97;15.90;;;;;;;;;;6215030;23;20175;-91
2021/12/11 07:06:08;;;;;;;40.63;16.07;;;;;;;;;;6214199;23;20198;-89
2021/12/11 07:09:16;;;;;;;35.60;14.97;;;;;;;;;;6216201;23;20151;-90
2021/12/11 07:12:21;;;;;;;28.53;13.50;;;;;;;;;;6215055;23;20175;-90
2021/12/11 07:15:27;;;;;;;29.17;14.53;;;;;;;;;;6215320;23;20221;-90
2021/12/11 07:18:36;;;;;;;31.27;14.93;;;;;;;;;;6215038;23;20250;-90
2021/12/11 09:19:07;;;;;;;21.50;7.10;;;;;;;;;;6226033;22;20219;-91
2021/12/11 09:22:15;;;;;;;16.83;7.63;;;;;;;;;;6212828;23;20163;-89
2021/12/11 09:25:21;;;;;;;14.43;6.57;;;;;;;;;;6213906;23;20318;-90
2021/12/11 09:28:28;;;;;;;11.73;6.37;;;;;;;;;;6214094;23;20167;-90
2021/12/11 09:31:38;;;;;;;14.57;6.60;;;;;;;;;;6214444;23;20218;-91
2021/12/11 09:34:46;;;;;;;22.10;7.93;;;;;;;;;;6213790;23;20159;-89
2021/12/11 09:37:53;;;;;;;23.23;9.87;;;;;;;;;;6211089;23;20287;-90
2021/12/11 09:40:59;;;;;;;25.17;10.13;;;;;;;;;;6214500;23;20166;-89
2021/12/11 09:44:07;;;;;;;20.63;9.47;;;;;;;;;;6212492;23;20634;-89
2021/12/11 09:47:14;;;;;;;18.80;8.60;;;;;;;;;;6214475;23;20227;-93
2021/12/11 09:50:22;;;;;;;14.47;6.80;;;;;;;;;;6213635;23;20172;-90
2021/12/11 09:53:29;;;;;;;13.87;7.13;;;;;;;;;;6216383;23;20167;-90
2021/12/11 09:56:36;;;;;;;13.50;5.97;;;;;;;;;;6216223;23;20151;-90
2021/12/11 09:59:44;;;;;;;15.27;8.67;;;;;;;;;;6214930;23;20151;-88
2021/12/11 10:02:49;;;;;;;11.47;6.40;;;;;;;;;;6214365;23;20210;-89
2021/12/11 10:05:57;;;;;;;14.97;6.80;;;;;;;;;;6213153;23;20191;-88
2021/12/11 10:12:56;;;;;;;14.27;7.47;;;;;;;;;;6212913;23;20175;-86
2021/12/11 10:16:06;;;;;;;10.93;6.00;;;;;;;;;;6212934;23;20151;-90
2021/12/11 10:19:12;;;;;;;11.73;5.40;;;;;;;;;;6212852;23;20303;-89
2021/12/11 10:22:22;;;;;;;10.63;5.60;;;;;;;;;;6213817;23;20191;-89
2021/12/11 10:25:30;;;;;;;13.50;6.50;;;;;;;;;;6213985;23;20191;-89
2021/12/11 10:28:38;;;;;;;14.87;5.70;;;;;;;;;;6233870;23;20199;-88
2021/12/11 10:31:46;;;;;;;13.90;6.13;;;;;;;;;;6216471;23;20155;-91
2021/12/11 10:34:54;;;;;;;17.13;7.10;;;;;;;;;;6215632;23;20174;-91
2021/12/11 10:38:00;;;;;;;12.53;6.67;;;;;;;;;;6214760;23;20168;-88
2021/12/11 10:41:07;;;;;;;14.07;6.27;;;;;;;;;;6212866;23;20167;-88
2021/12/11 10:44:16;;;;;;;11.00;5.67;;;;;;;;;;6215215;23;20195;-89
2021/12/11 10:47:25;;;;;;;13.50;5.37;;;;;;;;;;6216697;23;20175;-88
2021/12/11 10:50:32;;;;;;;11.37;5.67;;;;;;;;;;6216826;23;20194;-90
2021/12/11 10:53:37;;;;;;;15.10;6.63;;;;;;;;;;6216977;23;20171;-88
2021/12/11 10:56:43;;;;;;;12.40;6.07;;;;;;;;;;6215548;23;20195;-88
2021/12/11 10:59:50;;;;;;;10.93;5.63;;;;;;;;;;6215049;23;20167;-89
2021/12/11 11:03:00;;;;;;;9.60;5.33;;;;;;;;;;6217168;23;20162;-88
2021/12/11 11:06:06;;;;;;;10.57;5.87;;;;;;;;;;6217361;23;20194;-91
2021/12/11 11:09:11;;;;;;;10.97;5.87;;;;;;;;;;6216812;23;20251;-88
2021/12/11 11:12:20;;;;;;;13.60;6.53;;;;;;;;;;6216390;23;20171;-90
2021/12/11 11:15:26;;;;;;;12.60;5.93;;;;;;;;;;6216089;23;20175;-89
2021/12/11 11:18:35;;;;;;;8.37;5.40;;;;;;;;;;6216868;23;20206;-91
2021/12/11 11:21:42;;;;;;;12.43;6.27;;;;;;;;;;6234254;23;20215;-90
2021/12/11 11:24:55;;;;;;;11.23;6.33;;;;;;;;;;6216801;23;20163;-91
2021/12/11 11:28:05;;;;;;;10.37;5.70;;;;;;;;;;6215087;23;20226;-89
2021/12/11 11:31:14;;;;;;;12.63;5.87;;;;;;;;;;6216930;23;20182;-90
2021/12/11 11:34:30;;;;;;;11.90;5.93;;;;;;;;;;6214974;23;20167;-88
2021/12/11 11:37:36;;;;;;;11.20;5.63;;;;;;;;;;6215131;23;20186;-88
2021/12/11 11:40:44;;;;;;;8.20;4.87;;;;;;;;;;6214994;23;20216;-89
2021/12/11 11:43:49;;;;;;;17.13;7.97;;;;;;;;;;6216952;23;20191;-89
2021/12/11 11:46:56;;;;;;;11.77;6.70;;;;;;;;;;6216354;23;20194;-87
2021/12/11 11:50:03;;;;;;;9.50;6.03;;;;;;;;;;6216743;23;20164;-88
2021/12/11 11:53:09;;;;;;;9.43;5.10;;;;;;;;;;6217067;23;20195;-88
2021/12/11 11:56:16;;;;;;;13.60;5.70;;;;;;;;;;6214883;23;20166;-91
2021/12/11 11:59:22;;;;;;;11.77;6.43;;;;;;;;;;6218957;23;20191;-87
2021/12/11 12:02:34;;;;;;;17.53;8.47;;;;;;;;;;6217033;23;20186;-90
2021/12/11 12:05:47;;;;;;;12.03;5.77;;;;;;;;;;6217601;23;20191;-87
2021/12/11 12:08:54;;;;;;;12.33;6.03;;;;;;;;;;6217900;23;20191;-87
2021/12/11 12:12:00;;;;;;;13.50;6.03;;;;;;;;;;6218180;23;20167;-88
2021/12/11 12:15:09;;;;;;;14.47;6.70;;;;;;;;;;6218533;23;20167;-90
2021/12/11 12:18:16;;;;;;;10.47;6.30;;;;;;;;;;6215806;23;20693;-90
2021/12/11 12:21:25;;;;;;;10.00;5.60;;;;;;;;;;6215890;23;20168;-89
2021/12/11 12:24:32;;;;;;;9.97;5.70;;;;;;;;;;6216020;23;20171;-87
2021/12/11 12:27:37;;;;;;;10.17;5.73;;;;;;;;;;6217567;23;20179;-86
2021/12/11 12:30:46;;;;;;;17.47;7.83;;;;;;;;;;6215304;23;20167;-88
2021/12/11 12:33:51;;;;;;;11.30;6.43;;;;;;;;;;6215114;23;20210;-88
2021/12/11 12:37:00;;;;;;;12.77;6.40;;;;;;;;;;6213336;23;20163;-90
2021/12/11 12:40:08;;;;;;;11.53;6.23;;;;;;;;;;6216143;23;20531;-89
2021/12/11 12:43:21;;;;;;;12.87;6.93;;;;;;;;;;6216516;23;20151;-86
2021/12/11 12:46:29;;;;;;;14.00;7.43;;;;;;;;;;6214601;23;20186;-92
2021/12/11 12:49:36;;;;;;;14.80;7.10;;;;;;;;;;6213912;23;20155;-90
2021/12/11 12:52:45;;;;;;;11.27;6.30;;;;;;;;;;6216205;23;20154;-88
2021/12/11 12:55:53;;;;;;;16.37;7.33;;;;;;;;;;6215366;23;20171;-88
2021/12/11 12:59:01;;;;;;;13.67;6.77;;;;;;;;;;6233880;23;20232;-89
2021/12/11 13:02:09;;;;;;;15.17;6.43;;;;;;;;;;6216426;23;20159;-90
2021/12/11 13:05:16;;;;;;;12.10;6.83;;;;;;;;;;6216946;23;20231;-89
2021/12/11 13:08:24;;;;;;;13.60;6.77;;;;;;;;;;6218449;23;20158;-88
2021/12/11 13:11:32;;;;;;;15.20;7.03;;;;;;;;;;6219100;23;20195;-88
2021/12/11 13:14:40;;;;;;;17.73;7.10;;;;;;;;;;6219705;23;20171;-88
2021/12/11 13:17:59;;;;;;;15.50;7.60;;;;;;;;;;6219333;23;20183;-88
2021/12/11 13:21:08;;;;;;;24.83;10.17;;;;;;;;;;6218892;23;20158;-91
2021/12/11 13:24:28;;;;;;;19.20;8.30;;;;;;;;;;6209654;23;20184;-89
2021/12/11 13:27:33;;;;;;;14.17;6.43;;;;;;;;;;6212280;23;20214;-89
2021/12/11 13:30:47;;;;;;;19.80;9.50;;;;;;;;;;6213784;23;20210;-92
2021/12/11 13:33:51;;;;;;;10.90;5.83;;;;;;;;;;6214583;23;20171;-88
2021/12/11 13:36:57;;;;;;;15.37;7.60;;;;;;;;;;6212431;23;20170;-89
2021/12/11 13:40:05;;;;;;;17.33;8.00;;;;;;;;;;6212088;23;20194;-92
2021/12/11 13:43:10;;;;;;;12.90;6.70;;;;;;;;;;6213861;23;20187;-90
2021/12/11 13:46:21;;;;;;;12.53;6.50;;;;;;;;;;6212618;23;20193;-90
2021/12/11 13:49:26;;;;;;;13.37;6.23;;;;;;;;;;6212718;23;20163;-89
2021/12/11 13:52:31;;;;;;;17.30;7.33;;;;;;;;;;6210874;23;20175;-89
2021/12/11 13:55:38;;;;;;;13.20;6.87;;;;;;;;;;6210812;23;20171;-88
2021/12/11 13:58:44;;;;;;;16.83;7.70;;;;;;;;;;6212708;23;20738;-87
2021/12/11 14:01:52;;;;;;;15.53;7.70;;;;;;;;;;6215603;23;20167;-89
2021/12/11 14:04:57;;;;;;;15.63;7.53;;;;;;;;;;6211793;23;20226;-88
2021/12/11 14:08:07;;;;;;;13.33;7.37;;;;;;;;;;6212106;23;20210;-92
2021/12/11 14:11:18;;;;;;;17.27;7.50;;;;;;;;;;6213829;23;20222;-90
2021/12/11 14:14:24;;;;;;;14.93;6.93;;;;;;;;;;6214245;23;20172;-89
2021/12/11 14:17:29;;;;;;;16.53;7.83;;;;;;;;;;6215631;23;20199;-90
2021/12/11 14:20:37;;;;;;;21.90;9.60;;;;;;;;;;6213774;23;20274;-89
2021/12/11 14:23:42;;;;;;;16.97;8.47;;;;;;;;;;6214595;23;20163;-87
2021/12/11 14:26:49;;;;;;;14.67;7.53;;;;;;;;;;6214096;23;20269;-90
2021/12/11 14:29:56;;;;;;;16.10;8.13;;;;;;;;;;6213746;23;20178;-88
2021/12/11 14:33:02;;;;;;;16.30;8.40;;;;;;;;;;6213697;23;20166;-89
2021/12/11 14:36:10;;;;;;;16.63;7.97;;;;;;;;;;6213512;23;20594;-90
2021/12/11 14:39:23;;;;;;;13.73;7.47;;;;;;;;;;6215301;23;20167;-86
2021/12/11 14:42:30;;;;;;;18.70;8.20;;;;;;;;;;6213582;23;20171;-91
2021/12/11 14:45:38;;;;;;;18.20;8.37;;;;;;;;;;6213116;23;20175;-89
2021/12/11 14:48:44;;;;;;;22.27;8.83;;;;;;;;;;6214011;23;20176;-88
2021/12/11 14:51:50;;;;;;;15.93;8.10;;;;;;;;;;6212707;23;20223;-88
2021/12/11 14:54:57;;;;;;;18.97;9.27;;;;;;;;;;6209616;23;20175;-86
2021/12/11 14:58:03;;;;;;;16.60;8.17;;;;;;;;;;6211289;23;20248;-92
2021/12/11 15:01:10;;;;;;;16.93;8.17;;;;;;;;;;6212817;23;20223;-88
2021/12/11 15:04:17;;;;;;;18.33;9.27;;;;;;;;;;6214812;23;20183;-87
2021/12/11 15:07:28;;;;;;;24.93;9.97;;;;;;;;;;6217443;23;20191;-91
2021/12/11 15:10:35;;;;;;;23.10;10.30;;;;;;;;;;6232134;23;20214;-91
2021/12/11 15:13:43;;;;;;;25.10;10.10;;;;;;;;;;6211167;23;20743;-89
2021/12/11 15:16:49;;;;;;;21.20;9.47;;;;;;;;;;6212169;23;20182;-88
2021/12/11 15:19:55;;;;;;;26.43;10.70;;;;;;;;;;6216927;23;20217;-87
2021/12/11 15:23:03;;;;;;;24.47;10.10;;;;;;;;;;6214995;23;20607;-86
2021/12/11 15:26:09;;;;;;;26.07;10.67;;;;;;;;;;6213483;23;20230;-90
2021/12/11 15:29:17;;;;;;;25.87;10.23;;;;;;;;;;6213904;23;20231;-88
2021/12/11 15:32:22;;;;;;;26.70;10.20;;;;;;;;;;6214779;23;20224;-89
2021/12/11 15:35:28;;;;;;;25.00;10.00;;;;;;;;;;6213781;23;20183;-87
2021/12/11 15:41:53;;;;;;;27.70;10.73;;;;;;;;;;6214014;23;20183;-90
2021/12/11 15:45:10;;;;;;;33.40;13.03;;;;;;;;;;6213897;23;20754;-90
2021/12/11 15:48:15;;;;;;;28.03;10.90;;;;;;;;;;6212303;23;20198;-90
2021/12/11 15:51:22;;;;;;;24.13;10.03;;;;;;;;;;6213393;23;20166;-88
2021/12/11 15:54:27;;;;;;;23.30;10.70;;;;;;;;;;6215424;23;20171;-89
2021/12/11 15:57:32;;;;;;;24.80;11.53;;;;;;;;;;6216780;23;20170;-88
2021/12/11 16:00:49;;;;;;;25.00;10.70;;;;;;;;;;6214619;23;20231;-87
2021/12/11 16:03:55;;;;;;;24.90;11.43;;;;;;;;;;6215904;23;20642;-89
2021/12/11 16:07:08;;;;;;;26.77;10.70;;;;;;;;;;6216411;23;20191;-89
2021/12/11 16:10:16;;;;;;;29.67;11.87;;;;;;;;;;6214785;23;20199;-91
2021/12/11 16:13:22;;;;;;;25.33;11.20;;;;;;;;;;6214902;23;20225;-90
2021/12/11 16:16:28;;;;;;;28.87;11.43;;;;;;;;;;6213652;23;20168;-87
2021/12/11 16:22:53;;;;;;;25.60;11.97;;;;;;;;;;6215222;23;20203;-89
2021/12/11 16:25:58;;;;;;;28.20;12.23;;;;;;;;;;6215281;23;20171;-88
2021/12/11 16:29:06;;;;;;;25.97;12.07;;;;;;;;;;6217273;23;20223;-93
2021/12/11 16:32:22;;;;;;;65.83;27.27;;;;;;;;;;6215848;23;20167;-90
2021/12/11 16:35:31;;;;;;;29.53;11.67;;;;;;;;;;6216097;23;20179;-90
2021/12/11 16:38:39;;;;;;;29.57;12.90;;;;;;;;;;6213737;23;20180;-90
2021/12/11 16:41:47;;;;;;;32.30;13.63;;;;;;;;;;6213156;23;20175;-88
2021/12/11 16:44:52;;;;;;;28.57;11.40;;;;;;;;;;6210539;23;20555;-89
2021/12/11 16:47:58;;;;;;;31.30;13.03;;;;;;;;;;6210390;23;20191;-87
2021/12/11 16:51:05;;;;;;;33.97;14.47;;;;;;;;;;6212654;23;20175;-89
2021/12/11 16:54:12;;;;;;;29.97;12.50;;;;;;;;;;6214314;23;20200;-91
2021/12/11 16:57:18;;;;;;;30.80;13.43;;;;;;;;;;6213631;23;20228;-89
2021/12/11 17:00:24;;;;;;;30.87;13.10;;;;;;;;;;6212764;23;20235;-90
2021/12/11 17:03:30;;;;;;;39.57;15.10;;;;;;;;;;6210292;23;20207;-90
2021/12/11 17:06:37;;;;;;;31.27;12.87;;;;;;;;;;6217492;23;20179;-90
2021/12/11 17:09:45;;;;;;;39.17;14.73;;;;;;;;;;6211499;23;20186;-88
2021/12/11 17:12:50;;;;;;;32.80;13.00;;;;;;;;;;6212320;23;20675;-91
2021/12/11 17:15:55;;;;;;;35.77;15.13;;;;;;;;;;6214538;23;20245;-87
2021/12/11 17:19:02;;;;;;;41.97;15.30;;;;;;;;;;6212868;23;20194;-89
2021/12/11 17:22:08;;;;;;;37.17;14.43;;;;;;;;;;6213923;23;20163;-90
2021/12/11 17:25:20;;;;;;;38.63;15.73;;;;;;;;;;6212224;23;20203;-90
2021/12/11 17:28:27;;;;;;;42.63;15.33;;;;;;;;;;6213648;23;20191;-93
2021/12/11 17:31:32;;;;;;;40.50;16.67;;;;;;;;;;6213280;23;20263;-88
2021/12/11 17:34:37;;;;;;;32.87;13.40;;;;;;;;;;6213869;23;20178;-89
2021/12/11 17:37:44;;;;;;;41.27;16.47;;;;;;;;;;6216161;23;20211;-86
2021/12/11 17:40:51;;;;;;;43.23;15.57;;;;;;;;;;6216380;23;20216;-90
2021/12/11 17:43:58;;;;;;;45.10;17.30;;;;;;;;;;6214925;23;20558;-91
2021/12/11 17:47:05;;;;;;;44.40;17.40;;;;;;;;;;6215826;23;20270;-92
2021/12/11 17:50:13;;;;;;;46.13;18.20;;;;;;;;;;6215971;23;20254;-90
2021/12/11 17:53:19;;;;;;;50.63;19.03;;;;;;;;;;6214616;23;20170;-89
2021/12/11 17:56:26;;;;;;;49.20;19.07;;;;;;;;;;6212455;23;20238;-89
2021/12/11 17:59:34;;;;;;;44.47;18.30;;;;;;;;;;6213227;23;20167;-90
2021/12/11 18:02:41;;;;;;;44.90;17.50;;;;;;;;;;6215575;23;20175;-89
2021/12/11 18:05:53;;;;;;;44.43;16.10;;;;;;;;;;6215976;23;20162;-88
2021/12/11 18:09:00;;;;;;;41.40;15.30;;;;;;;;;;6214812;23;20223;-89
2021/12/11 18:15:31;;;;;;;46.03;17.73;;;;;;;;;;6214739;23;20290;-90
2021/12/11 18:18:38;;;;;;;50.20;18.23;;;;;;;;;;6215808;23;20191;-89
2021/12/11 18:21:48;;;;;;;49.33;18.23;;;;;;;;;;6215179;23;20167;-89
2021/12/11 18:24:59;;;;;;;49.20;19.10;;;;;;;;;;6216097;23;20175;-89
2021/12/11 18:28:06;;;;;;;43.40;18.07;;;;;;;;;;6217054;23;20265;-89
2021/12/11 18:31:14;;;;;;;41.17;16.63;;;;;;;;;;6219000;23;20163;-89
2021/12/11 18:34:20;;;;;;;43.10;16.80;;;;;;;;;;6216858;23;20615;-89
2021/12/11 18:37:27;;;;;;;42.90;16.50;;;;;;;;;;6216071;23;20240;-91
2021/12/11 18:40:37;;;;;;;44.43;15.80;;;;;;;;;;6216754;23;20237;-88
2021/12/11 18:43:44;;;;;;;43.10;16.33;;;;;;;;;;6216861;23;20632;-90
2021/12/11 18:46:51;;;;;;;42.93;16.20;;;;;;;;;;6215213;23;20235;-89
2021/12/11 18:49:57;;;;;;;37.17;15.03;;;;;;;;;;6216359;23;20174;-92
2021/12/11 18:53:03;;;;;;;40.97;15.67;;;;;;;;;;6215403;23;20210;-91
2021/12/11 18:56:09;;;;;;;73.77;25.57;;;;;;;;;;6216128;23;20151;-90
2021/12/11 18:59:21;;;;;;;43.63;16.73;;;;;;;;;;6216123;23;20251;-89
2021/12/11 19:02:28;;;;;;;39.00;16.70;;;;;;;;;;6215896;23;20179;-90
2021/12/11 19:05:35;;;;;;;41.63;14.80;;;;;;;;;;6216143;23;20175;-90
2021/12/11 19:08:52;;;;;;;44.97;16.70;;;;;;;;;;6215855;23;20213;-89
2021/12/11 19:11:59;;;;;;;42.03;15.27;;;;;;;;;;6216853;23;20230;-88
2021/12/11 19:15:08;;;;;;;39.70;15.77;;;;;;;;;;6216212;23;20171;-89
2021/12/11 19:18:14;;;;;;;41.57;15.07;;;;;;;;;;6216236;23;20211;-90
2021/12/11 19:21:24;;;;;;;40.37;14.03;;;;;;;;;;6215923;23;20179;-90
2021/12/11 19:24:30;;;;;;;38.03;15.53;;;;;;;;;;6215827;23;20236;-91
2021/12/11 19:27:39;;;;;;;38.50;14.67;;;;;;;;;;6214491;23;20219;-89
2021/12/11 19:30:48;;;;;;;37.57;14.00;;;;;;;;;;6213637;23;20614;-91
2021/12/11 19:33:56;;;;;;;35.73;14.37;;;;;;;;;;6213171;23;20222;-89
2021/12/11 19:37:03;;;;;;;38.37;15.73;;;;;;;;;;6215543;23;20175;-89
2021/12/11 19:40:12;;;;;;;33.13;14.30;;;;;;;;;;6215294;23;20174;-91
2021/12/11 19:43:17;;;;;;;34.33;13.43;;;;;;;;;;6214201;23;20174;-91
2021/12/11 19:46:24;;;;;;;39.93;15.83;;;;;;;;;;6212150;23;20218;-88
2021/12/11 19:49:31;;;;;;;35.73;14.63;;;;;;;;;;6216202;23;20258;-93
2021/12/11 19:52:37;;;;;;;37.90;15.00;;;;;;;;;;6215038;23;20179;-90
2021/12/11 19:55:44;;;;;;;37.67;15.37;;;;;;;;;;6213953;23;20163;-91
2021/12/11 19:58:51;;;;;;;45.53;18.77;;;;;;;;;;6216443;23;20162;-92
2021/12/11 20:02:01;;;;;;;66.40;24.67;;;;;;;;;;6232489;23;20227;-90
2021/12/11 20:05:08;;;;;;;37.97;16.07;;;;;;;;;;6214284;23;20636;-91
2021/12/11 20:08:18;;;;;;;38.67;15.47;;;;;;;;;;6212903;23;20218;-90
2021/12/11 20:11:26;;;;;;;38.20;15.93;;;;;;;;;;6214563;23;20179;-90
2021/12/11 20:14:31;;;;;;;38.50;15.60;;;;;;;;;;6214406;23;20247;-90
2021/12/11 20:17:39;;;;;;;224.30;101.13;;;;;;;;;;6212245;23;20252;-92
2021/12/11 20:20:46;;;;;;;39.53;16.40;;;;;;;;;;6211582;23;20222;-91
2021/12/11 20:23:52;;;;;;;65.77;29.60;;;;;;;;;;6210414;23;20187;-91
2021/12/11 20:26:57;;;;;;;38.97;15.73;;;;;;;;;;6211445;23;20244;-89
2021/12/11 20:30:02;;;;;;;40.03;17.07;;;;;;;;;;6211481;23;20167;-91
2021/12/11 20:33:11;;;;;;;42.00;17.73;;;;;;;;;;6209438;23;20626;-89
2021/12/11 20:36:16;;;;;;;39.93;15.93;;;;;;;;;;6212061;23;20164;-90
2021/12/11 20:39:21;;;;;;;41.87;16.70;;;;;;;;;;6211658;23;20666;-92
2021/12/11 20:42:27;;;;;;;39.53;16.17;;;;;;;;;;6210828;23;20170;-92
2021/12/11 20:45:34;;;;;;;39.87;16.87;;;;;;;;;;6210970;23;20182;-91